createdAt,value
2019-05-19T00:02:22.421Z,98529.09
2019-05-19T00:04:48.991Z,98524.75
2019-05-19T00:07:15.634Z,98524.91
2019-05-19T00:09:42.260Z,98519.38
2019-05-19T00:12:08.875Z,98518.21
2019-05-19T00:14:35.481Z,98515.36
2019-05-19T00:17:02.068Z,98518.73
2019-05-19T00:19:28.679Z,98515.72
2019-05-19T00:21:55.271Z,98513.03
2019-05-19T00:24:21.881Z,98515.53
2019-05-19T00:26:48.510Z,98513.52
2019-05-19T00:29:15.161Z,98512.02
2019-05-19T00:31:41.751Z,98510.00
2019-05-19T00:34:08.317Z,98505.01
2019-05-19T00:36:34.937Z,98506.67
2019-05-19T00:39:01.554Z,98505.99
2019-05-19T00:41:28.132Z,98497.45
2019-05-19T00:43:54.817Z,98496.28
2019-05-19T00:46:21.376Z,98485.41
2019-05-19T00:48:47.981Z,98484.90
2019-05-19T00:51:15.527Z,98493.58
2019-05-19T00:53:42.133Z,98494.58
2019-05-19T00:56:08.705Z,98490.89
2019-05-19T00:58:36.435Z,98487.20
2019-05-19T01:01:03.034Z,98484.35
2019-05-19T01:03:29.616Z,98491.39
2019-05-19T01:05:56.225Z,98491.37
2019-05-19T01:08:22.795Z,98489.02
2019-05-19T01:10:49.421Z,98490.34
2019-05-19T01:13:16.030Z,98492.02
2019-05-19T01:15:42.625Z,98492.00
2019-05-19T01:18:09.238Z,98495.66
2019-05-19T01:20:35.839Z,98495.81
2019-05-19T01:23:02.407Z,98495.79
2019-05-19T01:25:29.002Z,98482.44
2019-05-19T01:27:55.688Z,98491.61
2019-05-19T01:30:22.277Z,98489.59
2019-05-19T01:32:48.961Z,98490.75
2019-05-19T01:35:15.601Z,98494.08
2019-05-19T01:37:42.207Z,98492.25
2019-05-19T01:40:08.788Z,98495.08
2019-05-19T01:42:35.399Z,98486.39
2019-05-19T01:45:02.049Z,98491.05
2019-05-19T01:47:28.612Z,98498.38
2019-05-19T01:50:14.877Z,98493.69
2019-05-19T01:52:23.816Z,98495.68
2019-05-19T01:54:50.473Z,98490.00
2019-05-19T01:57:17.070Z,98487.67
2019-05-19T01:59:43.666Z,98487.83
2019-05-19T02:02:10.257Z,98484.82
2019-05-19T02:04:36.866Z,98484.48
2019-05-19T02:07:03.460Z,98485.97
2019-05-19T02:09:30.069Z,98488.64
2019-05-19T02:11:56.685Z,98484.30
2019-05-19T02:14:23.259Z,98482.96
2019-05-19T02:16:49.853Z,98488.30
2019-05-19T02:19:16.445Z,98486.63
2019-05-19T02:21:43.018Z,98483.95
2019-05-19T02:24:09.625Z,98487.46
2019-05-19T02:26:36.199Z,98481.63
2019-05-19T02:29:02.826Z,98492.30
2019-05-19T02:31:29.437Z,98497.48
2019-05-19T02:33:56.015Z,98497.33
2019-05-19T02:36:22.625Z,98497.67
2019-05-19T02:38:49.201Z,98490.34
2019-05-19T02:41:15.818Z,98490.34
2019-05-19T02:43:42.436Z,98502.67
2019-05-19T02:46:09.011Z,98500.00
2019-05-19T02:48:35.619Z,98502.17
2019-05-19T02:51:02.200Z,98498.66
2019-05-19T02:53:28.781Z,98506.37
2019-05-19T02:55:55.401Z,98499.69
2019-05-19T02:58:21.967Z,98499.84
2019-05-19T03:00:48.614Z,98504.50
2019-05-19T03:03:15.193Z,98515.69
2019-05-19T03:05:41.769Z,98520.69
2019-05-19T03:08:08.386Z,98513.33
2019-05-19T03:10:34.964Z,98515.31
2019-05-19T03:13:01.575Z,98515.47
2019-05-19T03:15:28.192Z,98515.28
2019-05-19T03:17:54.794Z,98519.09
2019-05-19T03:20:21.431Z,98519.25
2019-05-19T03:22:48.012Z,98517.39
2019-05-19T03:25:14.614Z,98525.55
2019-05-19T03:27:41.355Z,98527.54
2019-05-19T03:30:07.937Z,98522.20
2019-05-19T03:32:34.559Z,98520.03
2019-05-19T03:35:01.225Z,98525.02
2019-05-19T03:37:27.877Z,98527.20
2019-05-19T03:39:54.551Z,98523.88
2019-05-19T03:42:21.379Z,98522.05
2019-05-19T03:44:48.004Z,98523.23
2019-05-19T03:47:14.648Z,98526.73
2019-05-19T03:49:41.251Z,98523.41
2019-05-19T03:52:07.824Z,98522.91
2019-05-19T03:54:34.448Z,98531.61
2019-05-19T03:57:01.020Z,98534.28
2019-05-19T03:59:27.594Z,98536.30
2019-05-19T04:01:54.276Z,98539.81
2019-05-19T04:04:20.928Z,98537.48
2019-05-19T04:06:47.522Z,98545.33
2019-05-19T04:09:17.302Z,98539.50
2019-05-19T04:11:42.440Z,98541.67
2019-05-19T04:14:09.035Z,98547.35
2019-05-19T04:16:35.618Z,98546.70
2019-05-19T04:19:02.236Z,98541.02
2019-05-19T04:21:28.840Z,98538.20
2019-05-19T04:23:55.412Z,98535.03
2019-05-19T04:26:22.039Z,98531.36
2019-05-19T04:28:48.619Z,98525.03
2019-05-19T04:31:15.246Z,98528.38
2019-05-19T04:33:41.903Z,98524.72
2019-05-19T04:36:08.491Z,98516.21
2019-05-19T04:38:35.155Z,98517.70
2019-05-19T04:41:01.736Z,98518.38
2019-05-19T04:43:28.334Z,98510.21
2019-05-19T04:45:54.941Z,98511.73
2019-05-19T04:48:21.509Z,98505.73
2019-05-19T04:50:48.133Z,98504.59
2019-05-19T04:53:14.721Z,98507.44
2019-05-19T04:55:41.317Z,98510.27
2019-05-19T04:58:07.929Z,98509.11
2019-05-19T05:00:34.505Z,98520.47
2019-05-19T05:03:01.111Z,98521.65
2019-05-19T05:05:27.688Z,98514.66
2019-05-19T05:07:54.301Z,98519.34
2019-05-19T05:10:20.907Z,98513.84
2019-05-19T05:12:47.490Z,98517.50
2019-05-19T05:15:14.101Z,98519.36
2019-05-19T05:17:40.670Z,98516.87
2019-05-19T05:20:07.326Z,98517.39
2019-05-19T05:22:33.974Z,98511.23
2019-05-19T05:25:00.541Z,98514.89
2019-05-19T05:27:27.134Z,98510.56
2019-05-19T05:29:53.706Z,98510.24
2019-05-19T05:32:20.279Z,98506.25
2019-05-19T05:34:46.892Z,98502.23
2019-05-19T05:37:13.475Z,98502.91
2019-05-19T05:39:41.512Z,98505.75
2019-05-19T05:42:08.089Z,98512.28
2019-05-19T05:44:34.662Z,98509.60
2019-05-19T05:47:01.258Z,98515.30
2019-05-19T05:49:27.828Z,98511.16
2019-05-19T05:51:54.438Z,98515.32
2019-05-19T05:54:21.052Z,98512.83
2019-05-19T05:56:47.619Z,98518.69
2019-05-19T05:59:14.248Z,98514.35
2019-05-19T06:01:40.811Z,98518.38
2019-05-19T06:04:07.422Z,98518.02
2019-05-19T06:06:34.002Z,98517.70
2019-05-19T06:09:00.618Z,98515.03
2019-05-19T06:11:27.200Z,98512.53
2019-05-19T06:13:53.808Z,98514.38
2019-05-19T06:16:20.430Z,98517.70
2019-05-19T06:18:47.009Z,98516.38
2019-05-19T06:21:13.603Z,98514.70
2019-05-19T06:23:40.185Z,98517.73
2019-05-19T06:26:06.813Z,98522.75
2019-05-19T06:28:33.429Z,98516.55
2019-05-19T06:31:00.000Z,98513.88
2019-05-19T06:33:26.600Z,98513.05
2019-05-19T06:35:53.218Z,98515.72
2019-05-19T06:38:19.808Z,98513.69
2019-05-19T06:40:46.397Z,98511.02
2019-05-19T06:43:12.968Z,98519.05
2019-05-19T06:45:39.599Z,98515.68
2019-05-19T06:48:06.176Z,98520.56
2019-05-19T06:50:32.774Z,98522.91
2019-05-19T06:53:13.366Z,98521.04
2019-05-19T06:55:27.707Z,98516.02
2019-05-19T06:57:54.344Z,98518.02
2019-05-19T07:00:20.906Z,98517.48
2019-05-19T07:02:47.524Z,98514.30
2019-05-19T07:05:14.118Z,98516.48
2019-05-19T07:07:40.711Z,98514.59
2019-05-19T07:10:07.345Z,98515.43
2019-05-19T07:12:33.973Z,98510.90
2019-05-19T07:15:00.605Z,98510.89
2019-05-19T07:17:29.437Z,98512.69
2019-05-19T07:19:56.049Z,98514.85
2019-05-19T07:22:22.671Z,98511.62
2019-05-19T07:24:49.250Z,98511.45
2019-05-19T07:27:15.837Z,98507.78
2019-05-19T07:29:42.415Z,98506.73
2019-05-19T07:32:09.013Z,98509.90
2019-05-19T07:34:35.648Z,98503.18
2019-05-19T07:37:02.274Z,98501.49
2019-05-19T07:39:28.910Z,98504.66
2019-05-19T07:41:55.486Z,98499.25
2019-05-19T07:44:22.105Z,98503.43
2019-05-19T07:46:48.713Z,98503.92
2019-05-19T07:49:15.277Z,98503.24
2019-05-19T07:51:41.891Z,98505.24
2019-05-19T07:54:08.503Z,98503.52
2019-05-19T07:56:35.289Z,98494.80
2019-05-19T07:59:01.881Z,98504.16
2019-05-19T08:01:28.566Z,98501.13
2019-05-19T08:03:55.142Z,98504.80
2019-05-19T08:06:21.852Z,98505.74
2019-05-19T08:08:48.433Z,98508.41
2019-05-19T08:11:15.017Z,98501.67
2019-05-19T08:13:41.628Z,98508.48
2019-05-19T08:16:08.289Z,98513.47
2019-05-19T08:18:34.886Z,98512.58
2019-05-19T08:21:01.499Z,98507.34
2019-05-19T08:23:28.073Z,98506.74
2019-05-19T08:25:54.725Z,98506.68
2019-05-19T08:28:21.300Z,98501.22
2019-05-19T08:30:47.882Z,98501.48
2019-05-19T08:33:14.496Z,98498.69
2019-05-19T08:35:41.068Z,98499.45
2019-05-19T08:38:07.683Z,98505.56
2019-05-19T08:40:34.382Z,98497.27
2019-05-19T08:43:00.947Z,98496.97
2019-05-19T08:45:27.619Z,98488.61
2019-05-19T08:47:54.313Z,98488.66
2019-05-19T08:50:20.924Z,98487.84
2019-05-19T08:52:47.548Z,98480.95
2019-05-19T08:55:14.126Z,98474.77
2019-05-19T08:57:40.733Z,98471.92
2019-05-19T09:00:07.306Z,98477.80
2019-05-19T09:02:33.926Z,98478.34
2019-05-19T09:05:00.486Z,98485.56
2019-05-19T09:07:27.096Z,98481.52
2019-05-19T09:09:53.749Z,98478.09
2019-05-19T09:12:20.327Z,98468.16
2019-05-19T09:14:46.926Z,98470.66
2019-05-19T09:17:13.664Z,98461.81
2019-05-19T09:19:41.216Z,98459.20
2019-05-19T09:22:07.918Z,98461.45
2019-05-19T09:24:37.236Z,98463.92
2019-05-19T09:27:03.079Z,98467.03
2019-05-19T09:29:29.677Z,98466.05
2019-05-19T09:31:56.358Z,98463.91
2019-05-19T09:34:23.010Z,98445.56
2019-05-19T09:36:49.666Z,98445.28
2019-05-19T09:39:16.252Z,98442.34
2019-05-19T09:41:43.072Z,98446.41
2019-05-19T09:44:09.686Z,98446.41
2019-05-19T09:46:36.261Z,98442.66
2019-05-19T09:49:02.889Z,98440.78
2019-05-19T09:51:29.498Z,98441.62
2019-05-19T09:53:56.142Z,98442.67
2019-05-19T09:56:22.758Z,98437.55
2019-05-19T09:58:49.325Z,98434.38
2019-05-19T10:01:15.898Z,98429.54
2019-05-19T10:03:42.504Z,98430.23
2019-05-19T10:06:09.085Z,98426.50
2019-05-19T10:08:35.699Z,98421.69
2019-05-19T10:11:02.278Z,98422.13
2019-05-19T10:13:28.868Z,98421.98
2019-05-19T10:15:55.689Z,98407.76
2019-05-19T10:18:22.333Z,98414.14
2019-05-19T10:20:50.481Z,98408.09
2019-05-19T10:23:17.300Z,98414.26
2019-05-19T10:25:43.899Z,98409.14
2019-05-19T10:28:10.615Z,98412.42
2019-05-19T10:30:37.216Z,98406.17
2019-05-19T10:33:03.829Z,98408.30
2019-05-19T10:35:31.521Z,98400.08
2019-05-19T10:37:58.118Z,98398.81
2019-05-19T10:40:24.715Z,98392.64
2019-05-19T10:42:51.303Z,98390.22
2019-05-19T10:45:19.164Z,98386.69
2019-05-19T10:47:45.739Z,98388.02
2019-05-19T10:50:12.335Z,98386.61
2019-05-19T10:52:38.951Z,98389.81
2019-05-19T10:55:05.533Z,98387.80
2019-05-19T10:57:32.137Z,98384.86
2019-05-19T10:59:58.718Z,98382.96
2019-05-19T11:02:25.330Z,98380.73
2019-05-19T11:04:51.939Z,98380.67
2019-05-19T11:07:18.518Z,98374.25
2019-05-19T11:09:45.096Z,98370.77
2019-05-19T11:12:11.674Z,98376.33
2019-05-19T11:14:38.469Z,98374.53
2019-05-19T11:17:05.050Z,98366.17
2019-05-19T11:19:31.623Z,98359.95
2019-05-19T11:21:58.216Z,98365.22
2019-05-19T11:24:24.801Z,98362.31
2019-05-19T11:26:51.484Z,98366.19
2019-05-19T11:29:18.090Z,98361.92
2019-05-19T11:31:44.669Z,98363.05
2019-05-19T11:34:11.371Z,98355.16
2019-05-19T11:36:37.939Z,98353.05
2019-05-19T11:39:04.644Z,98347.37
2019-05-19T11:41:31.208Z,98351.27
2019-05-19T11:43:57.773Z,98351.61
2019-05-19T11:46:24.364Z,98344.56
2019-05-19T11:48:50.996Z,98336.08
2019-05-19T11:51:17.612Z,98334.42
2019-05-19T11:53:44.222Z,98336.37
2019-05-19T11:56:11.624Z,98321.25
2019-05-19T11:58:38.386Z,98312.44
2019-05-19T12:01:04.980Z,98312.16
2019-05-19T12:03:31.641Z,98314.02
2019-05-19T12:05:58.241Z,98302.16
2019-05-19T12:08:24.812Z,98310.36
2019-05-19T12:10:51.453Z,98315.83
2019-05-19T12:13:18.035Z,98320.22
2019-05-19T12:15:44.809Z,98317.77
2019-05-19T12:18:11.408Z,98315.55
2019-05-19T12:20:38.016Z,98310.95
2019-05-19T12:23:04.577Z,98312.42
2019-05-19T12:25:31.176Z,98317.38
2019-05-19T12:27:57.805Z,98316.86
2019-05-19T12:30:24.385Z,98322.91
2019-05-19T12:32:51.035Z,98326.73
2019-05-19T12:35:17.653Z,98334.89
2019-05-19T12:37:44.279Z,98345.22
2019-05-19T12:40:10.880Z,98326.95
2019-05-19T12:42:37.447Z,98342.22
2019-05-19T12:45:04.079Z,98345.27
2019-05-19T12:47:30.682Z,98329.34
2019-05-19T12:49:57.262Z,98320.97
2019-05-19T12:52:23.874Z,98317.74
2019-05-19T12:54:50.457Z,98317.30
2019-05-19T12:57:17.062Z,98316.45
2019-05-19T12:59:43.695Z,98322.35
2019-05-19T13:02:10.273Z,98320.19
2019-05-19T13:04:36.889Z,98312.77
2019-05-19T13:07:03.470Z,98312.82
2019-05-19T13:09:30.085Z,98308.10
2019-05-19T13:11:56.725Z,98306.50
2019-05-19T13:14:23.296Z,98302.34
2019-05-19T13:16:49.880Z,98315.31
2019-05-19T13:19:16.489Z,98310.69
2019-05-19T13:21:43.093Z,98301.92
2019-05-19T13:24:09.707Z,98301.03
2019-05-19T13:26:36.411Z,98303.94
2019-05-19T13:29:03.005Z,98298.31
2019-05-19T13:31:29.610Z,98291.84
2019-05-19T13:33:56.198Z,98288.57
2019-05-19T13:36:22.770Z,98289.34
2019-05-19T13:38:49.432Z,98290.62
2019-05-19T13:41:16.047Z,98291.02
2019-05-19T13:43:42.643Z,98285.84
2019-05-19T13:46:09.242Z,98293.02
2019-05-19T13:48:35.936Z,98299.34
2019-05-19T13:51:02.510Z,98295.77
2019-05-19T13:53:29.115Z,98287.52
2019-05-19T13:55:55.699Z,98286.64
2019-05-19T13:58:22.308Z,98287.11
2019-05-19T14:00:50.861Z,98288.93
2019-05-19T14:03:17.194Z,98300.02
2019-05-19T14:05:43.796Z,98295.72
2019-05-19T14:08:10.366Z,98294.98
2019-05-19T14:10:36.965Z,98300.00
2019-05-19T14:13:03.546Z,98303.45
2019-05-19T14:15:30.163Z,98307.13
2019-05-19T14:17:56.775Z,98306.16
2019-05-19T14:20:23.338Z,98316.79
2019-05-19T14:22:49.920Z,98325.47
2019-05-19T14:25:16.528Z,98318.80
2019-05-19T14:27:43.125Z,98321.23
2019-05-19T14:30:09.763Z,98327.84
2019-05-19T14:32:36.375Z,98327.78
2019-05-19T14:35:02.993Z,98329.48
2019-05-19T14:37:29.719Z,98334.24
2019-05-19T14:39:56.301Z,98327.80
2019-05-19T14:42:22.893Z,98318.39
2019-05-19T14:44:49.471Z,98322.07
2019-05-19T14:47:16.166Z,98321.29
2019-05-19T14:49:45.548Z,98322.70
2019-05-19T14:52:11.088Z,98321.33
2019-05-19T14:54:37.717Z,98335.31
2019-05-19T14:57:04.310Z,98324.33
2019-05-19T14:59:30.915Z,98331.97
2019-05-19T15:01:57.488Z,98322.31
2019-05-19T15:04:24.053Z,98318.84
2019-05-19T15:06:50.672Z,98314.05
2019-05-19T15:09:17.250Z,98315.36
2019-05-19T15:11:43.879Z,98321.61
2019-05-19T15:14:10.499Z,98315.75
2019-05-19T15:16:37.070Z,98314.78
2019-05-19T15:19:03.673Z,98312.70
2019-05-19T15:21:31.970Z,98312.23
2019-05-19T15:23:58.732Z,98311.66
2019-05-19T15:26:25.342Z,98308.02
2019-05-19T15:28:51.919Z,98312.03
2019-05-19T15:31:18.538Z,98305.87
2019-05-19T15:33:45.112Z,98301.82
2019-05-19T15:36:11.733Z,98303.47
2019-05-19T15:38:38.324Z,98312.80
2019-05-19T15:41:04.909Z,98312.48
2019-05-19T15:43:31.522Z,98309.18
2019-05-19T15:45:58.108Z,98310.45
2019-05-19T15:48:24.870Z,98313.11
2019-05-19T15:50:51.525Z,98314.06
2019-05-19T15:53:18.174Z,98314.28
2019-05-19T15:55:44.775Z,98309.25
2019-05-19T15:58:16.687Z,98308.90
2019-05-19T16:00:39.707Z,98311.58
2019-05-19T16:03:06.311Z,98315.06
2019-05-19T16:05:32.882Z,98318.56
2019-05-19T16:07:59.494Z,98319.92
2019-05-19T16:10:26.063Z,98325.61
2019-05-19T16:12:52.686Z,98325.32
2019-05-19T16:15:19.266Z,98324.76
2019-05-19T16:17:45.861Z,98317.69
2019-05-19T16:20:12.486Z,98318.18
2019-05-19T16:22:39.067Z,98312.95
2019-05-19T16:25:07.812Z,98311.81
2019-05-19T16:27:34.390Z,98315.05
2019-05-19T16:30:00.992Z,98319.13
2019-05-19T16:32:27.610Z,98311.56
2019-05-19T16:34:54.185Z,98305.83
2019-05-19T16:37:20.796Z,98306.70
2019-05-19T16:39:47.407Z,98312.38
2019-05-19T16:42:14.006Z,98317.85
2019-05-19T16:44:41.788Z,98313.52
2019-05-19T16:47:08.389Z,98314.58
2019-05-19T16:49:34.996Z,98314.05
2019-05-19T16:52:01.588Z,98307.58
2019-05-19T16:54:28.235Z,98312.19
2019-05-19T16:56:54.812Z,98309.50
2019-05-19T16:59:21.387Z,98311.98
2019-05-19T17:01:48.007Z,98310.64
2019-05-19T17:04:14.602Z,98311.98
2019-05-19T17:06:41.195Z,98317.16
2019-05-19T17:09:07.771Z,98315.77
2019-05-19T17:11:34.345Z,98321.20
2019-05-19T17:14:00.943Z,98312.77
2019-05-19T17:16:27.631Z,98320.63
2019-05-19T17:18:55.166Z,98320.94
2019-05-19T17:21:21.768Z,98311.94
2019-05-19T17:23:48.350Z,98314.91
2019-05-19T17:26:15.020Z,98315.69
2019-05-19T17:28:41.595Z,98324.92
2019-05-19T17:31:08.251Z,98329.23
2019-05-19T17:33:34.815Z,98324.10
2019-05-19T17:36:01.432Z,98318.94
2019-05-19T17:38:28.894Z,98326.59
2019-05-19T17:40:55.470Z,98334.73
2019-05-19T17:43:22.072Z,98329.56
2019-05-19T17:45:48.656Z,98320.64
2019-05-19T17:48:26.113Z,98316.91
2019-05-19T17:50:43.564Z,98318.84
2019-05-19T17:53:10.153Z,98325.41
2019-05-19T17:55:36.765Z,98323.58
2019-05-19T17:58:03.336Z,98321.72
2019-05-19T18:00:29.916Z,98322.56
2019-05-19T18:02:56.526Z,98324.79
2019-05-19T18:05:23.126Z,98324.59
2019-05-19T18:07:49.786Z,98324.08
2019-05-19T18:10:16.397Z,98318.16
2019-05-19T18:12:42.967Z,98321.19
2019-05-19T18:15:09.585Z,98317.16
2019-05-19T18:17:36.151Z,98319.97
2019-05-19T18:20:02.767Z,98311.66
2019-05-19T18:22:29.345Z,98316.86
2019-05-19T18:24:56.143Z,98314.70
2019-05-19T18:27:22.742Z,98312.62
2019-05-19T18:29:49.318Z,98314.31
2019-05-19T18:32:15.934Z,98313.28
2019-05-19T18:34:42.593Z,98311.19
2019-05-19T18:37:09.238Z,98306.65
2019-05-19T18:39:35.811Z,98308.48
2019-05-19T18:42:02.381Z,98309.30
2019-05-19T18:44:28.978Z,98312.84
2019-05-19T18:46:55.543Z,98309.62
2019-05-19T18:49:22.238Z,98306.63
2019-05-19T18:51:48.828Z,98302.55
2019-05-19T18:54:15.551Z,98303.37
2019-05-19T18:56:42.173Z,98309.09
2019-05-19T18:59:08.744Z,98302.00
2019-05-19T19:01:35.381Z,98311.97
2019-05-19T19:04:04.191Z,98312.23
2019-05-19T19:06:30.833Z,98312.23
2019-05-19T19:08:58.549Z,98314.38
2019-05-19T19:11:25.122Z,98315.17
2019-05-19T19:13:51.768Z,98316.33
2019-05-19T19:16:18.391Z,98312.25
2019-05-19T19:18:44.979Z,98310.98
2019-05-19T19:21:11.584Z,98312.44
2019-05-19T19:23:38.151Z,98310.02
2019-05-19T19:26:04.775Z,98319.02
2019-05-19T19:28:31.390Z,98314.73
2019-05-19T19:30:57.956Z,98319.08
2019-05-19T19:33:24.757Z,98313.65
2019-05-19T19:35:51.365Z,98319.66
2019-05-19T19:38:18.008Z,98316.17
2019-05-19T19:40:44.623Z,98317.80
2019-05-19T19:43:11.274Z,98313.51
2019-05-19T19:45:37.958Z,98315.66
2019-05-19T19:48:04.602Z,98317.08
2019-05-19T19:50:31.180Z,98305.78
2019-05-19T19:52:57.765Z,98298.28
2019-05-19T19:55:24.357Z,98301.23
2019-05-19T19:57:51.003Z,98299.36
2019-05-19T20:00:18.825Z,98293.72
2019-05-19T20:02:45.534Z,98294.49
2019-05-19T20:05:12.141Z,98290.43
2019-05-19T20:07:40.644Z,98302.60
2019-05-19T20:10:08.919Z,98296.09
2019-05-19T20:12:35.507Z,98295.23
2019-05-19T20:15:02.092Z,98295.30
2019-05-19T20:17:28.719Z,98289.02
2019-05-19T20:19:55.287Z,98284.05
2019-05-19T20:22:21.912Z,98285.13
2019-05-19T20:24:48.551Z,98279.30
2019-05-19T20:27:15.122Z,98281.22
2019-05-19T20:29:41.713Z,98278.11
2019-05-19T20:32:08.295Z,98276.31
2019-05-19T20:34:34.885Z,98272.34
2019-05-19T20:37:01.501Z,98274.06
2019-05-19T20:39:28.102Z,98272.61
2019-05-19T20:41:54.684Z,98271.84
2019-05-19T20:44:21.274Z,98270.87
2019-05-19T20:46:47.890Z,98269.07
2019-05-19T20:49:14.458Z,98277.00
2019-05-19T20:51:41.058Z,98275.74
2019-05-19T20:54:07.635Z,98285.17
2019-05-19T20:56:34.237Z,98280.55
2019-05-19T20:59:00.814Z,98281.46
2019-05-19T21:01:27.390Z,98286.05
2019-05-19T21:03:54.004Z,98286.10
2019-05-19T21:06:20.581Z,98285.64
2019-05-19T21:08:47.156Z,98288.19
2019-05-19T21:11:13.761Z,98286.55
2019-05-19T21:13:40.423Z,98288.78
2019-05-19T21:16:07.005Z,98288.78
2019-05-19T21:18:33.582Z,98294.02
2019-05-19T21:21:00.156Z,98293.36
2019-05-19T21:23:26.789Z,98295.72
2019-05-19T21:25:53.385Z,98296.73
2019-05-19T21:28:19.987Z,98294.75
2019-05-19T21:30:46.562Z,98290.07
2019-05-19T21:33:13.153Z,98294.31
2019-05-19T21:35:39.724Z,98300.38
2019-05-19T21:38:06.323Z,98289.17
2019-05-19T21:40:32.901Z,98295.56
2019-05-19T21:42:59.475Z,98288.56
2019-05-19T21:45:26.071Z,98288.43
2019-05-19T21:47:52.706Z,98284.48
2019-05-19T21:50:19.336Z,98290.72
2019-05-19T21:52:45.955Z,98290.58
2019-05-19T21:55:12.525Z,98299.00
2019-05-19T21:57:39.133Z,98302.88
2019-05-19T22:00:05.798Z,98301.94
2019-05-19T22:02:32.424Z,98296.75
2019-05-19T22:05:01.503Z,98296.58
2019-05-19T22:07:27.305Z,98302.63
2019-05-19T22:09:53.921Z,98303.50
2019-05-19T22:12:20.495Z,98306.37
2019-05-19T22:14:47.066Z,98306.77
2019-05-19T22:17:13.687Z,98311.80
2019-05-19T22:19:40.256Z,98303.61
2019-05-19T22:22:06.863Z,98300.78
2019-05-19T22:24:33.446Z,98294.25
2019-05-19T22:27:00.019Z,98295.45
2019-05-19T22:29:26.632Z,98293.96
2019-05-19T22:31:53.321Z,98282.79
2019-05-19T22:34:19.921Z,98279.45
2019-05-19T22:36:46.516Z,98281.16
2019-05-19T22:39:13.083Z,98278.14
2019-05-19T22:41:39.682Z,98272.13
2019-05-19T22:44:06.254Z,98267.45
2019-05-19T22:46:33.118Z,98260.42
2019-05-19T22:48:59.686Z,98252.05
2019-05-19T22:51:26.259Z,98250.38
2019-05-19T22:53:52.845Z,98240.66
2019-05-19T22:56:19.496Z,98243.56
2019-05-19T22:58:46.091Z,98244.75
2019-05-19T23:01:12.740Z,98248.95
2019-05-19T23:03:39.342Z,98249.97
2019-05-19T23:06:05.961Z,98246.13
2019-05-19T23:08:32.532Z,98246.81
2019-05-19T23:10:59.148Z,98241.13
2019-05-19T23:13:25.757Z,98241.81
2019-05-19T23:15:52.335Z,98239.82
2019-05-19T23:18:18.946Z,98230.50
2019-05-19T23:20:45.521Z,98232.53
2019-05-19T23:23:12.142Z,98226.19
2019-05-19T23:25:38.720Z,98226.88
2019-05-19T23:28:05.374Z,98229.41
2019-05-19T23:30:32.015Z,98226.06
2019-05-19T23:32:58.580Z,98222.77
2019-05-19T23:35:25.182Z,98215.91
2019-05-19T23:37:51.757Z,98215.26
2019-05-19T23:40:18.457Z,98214.90
2019-05-19T23:42:45.039Z,98227.65
2019-05-19T23:45:11.611Z,98232.17
2019-05-19T23:47:38.204Z,98218.63
2019-05-19T23:50:04.775Z,98217.46
2019-05-19T23:52:31.458Z,98211.27
2019-05-19T23:54:58.028Z,98207.42
2019-05-19T23:57:24.595Z,98203.11
2019-05-19T23:59:51.208Z,98190.22
